Time;durP1;ratioP1;P1;durP2;ratioP2;P2;SDS_P1;SDS_P2;PMS_P1;PMS_P2;Temp;Humidity;BMP_temperature;BMP_pressure;BME280_temperature;BME280_humidity;BME280_pressure;Samples;Min_cycle;Max_cycle;Signal;HPM_P1;HPM_P2
2022/05/01 00:00:23;;;;;;;;;2.00;1.50;;;;;;;;5065985;28;51149;-48
2022/05/01 00:03:07;;;;;;;;;4.00;1.00;;;;;;;;5063316;28;51112;-49
2022/05/01 00:05:51;;;;;;;;;0.75;0.75;;;;;;;;5065432;28;51144;-51
2022/05/01 00:08:39;;;;;;;;;4.00;1.25;;;;;;;;5063420;28;51124;-50
2022/05/01 00:11:23;;;;;;;;;1.50;1.50;;;;;;;;5047082;28;51347;-48
2022/05/01 00:14:07;;;;;;;;;1.00;0.50;;;;;;;;5065409;28;51105;-48
2022/05/01 00:16:52;;;;;;;;;2.75;0.75;;;;;;;;5067147;28;51071;-48
2022/05/01 00:19:36;;;;;;;;;1.25;0.75;;;;;;;;5068188;27;51174;-49
2022/05/01 00:22:20;;;;;;;;;2.00;0.50;;;;;;;;5067713;27;51083;-48
2022/05/01 00:25:04;;;;;;;;;0.75;0.75;;;;;;;;5077036;27;51445;-49
2022/05/01 00:27:48;;;;;;;;;3.75;0.75;;;;;;;;5068078;27;51574;-49
2022/05/01 00:30:33;;;;;;;;;1.75;0.75;;;;;;;;5070428;27;51105;-49
2022/05/01 00:36:27;;;;;;;;;3.75;0.75;;;;;;;;5069346;27;51145;-48
2022/05/01 00:39:10;;;;;;;;;1.00;0.00;;;;;;;;5067526;27;51696;-49
2022/05/01 00:41:55;;;;;;;;;1.25;1.25;;;;;;;;5069788;27;51136;-50
2022/05/01 00:44:39;;;;;;;;;1.00;0.75;;;;;;;;5065419;27;51037;-50
2022/05/01 00:47:24;;;;;;;;;0.75;0.75;;;;;;;;5062870;28;51257;-49
2022/05/01 00:50:09;;;;;;;;;0.00;0.00;;;;;;;;5066586;27;51534;-49
2022/05/01 00:52:53;;;;;;;;;0.50;0.50;;;;;;;;5047146;28;51286;-49
2022/05/01 00:55:38;;;;;;;;;1.00;0.75;;;;;;;;5067763;27;51032;-49
2022/05/01 00:58:22;;;;;;;;;0.75;0.75;;;;;;;;5062424;27;51185;-49
2022/05/01 01:01:07;;;;;;;;;0.75;0.75;;;;;;;;5066193;27;51083;-50
2022/05/01 01:03:53;;;;;;;;;4.50;0.25;;;;;;;;5077773;27;51195;-49
2022/05/01 01:06:41;;;;;;;;;2.50;0.75;;;;;;;;5066445;27;51359;-49
2022/05/01 01:09:26;;;;;;;;;1.00;1.00;;;;;;;;5075171;27;51310;-49
2022/05/01 01:15:30;;;;;;;;;3.00;1.25;;;;;;;;5067102;27;51060;-49
2022/05/01 01:18:17;;;;;;;;;0.25;0.25;;;;;;;;5063622;27;51099;-49
2022/05/01 01:21:01;;;;;;;;;2.75;1.75;;;;;;;;5064212;27;51409;-49
2022/05/01 01:23:46;;;;;;;;;3.00;1.75;;;;;;;;5069000;27;51040;-48
2022/05/01 01:26:31;;;;;;;;;2.50;0.75;;;;;;;;5073146;27;51099;-49
2022/05/01 01:32:19;;;;;;;;;3.00;1.00;;;;;;;;5071843;27;51343;-49
2022/05/01 01:35:05;;;;;;;;;0.75;0.75;;;;;;;;5070485;27;51180;-50
2022/05/01 01:37:50;;;;;;;;;2.25;1.00;;;;;;;;5075886;27;51103;-48
2022/05/01 01:40:37;;;;;;;;;6.75;1.00;;;;;;;;5073532;27;51496;-50
2022/05/01 01:43:25;;;;;;;;;4.50;1.50;;;;;;;;5070151;27;51370;-49
2022/05/01 01:46:10;;;;;;;;;2.00;0.75;;;;;;;;5068386;27;51056;-49
2022/05/01 01:48:54;;;;;;;;;2.50;1.00;;;;;;;;5064591;27;51091;-49
2022/05/01 01:51:39;;;;;;;;;2.00;0.75;;;;;;;;5061142;27;51534;-49
2022/05/01 01:54:24;;;;;;;;;0.75;0.75;;;;;;;;5069542;27;51122;-50
2022/05/01 01:57:09;;;;;;;;;2.50;0.75;;;;;;;;5066965;27;51309;-50
2022/05/01 01:59:53;;;;;;;;;4.00;0.75;;;;;;;;5065109;27;51249;-49
2022/05/01 02:02:37;;;;;;;;;3.00;1.00;;;;;;;;5050012;27;51171;-49
2022/05/01 02:05:22;;;;;;;;;1.75;1.50;;;;;;;;5068640;27;52104;-48
2022/05/01 02:08:06;;;;;;;;;5.25;2.50;;;;;;;;5070990;27;51047;-48
2022/05/01 02:10:51;;;;;;;;;0.75;0.75;;;;;;;;5075961;27;51161;-50
2022/05/01 02:13:35;;;;;;;;;1.75;1.25;;;;;;;;5065926;27;51197;-50
2022/05/01 02:16:19;;;;;;;;;1.75;0.75;;;;;;;;5076895;27;51576;-49
2022/05/01 02:19:04;;;;;;;;;5.25;1.50;;;;;;;;5061791;27;51672;-49
2022/05/01 02:21:48;;;;;;;;;3.75;0.75;;;;;;;;5061809;27;51300;-49
2022/05/01 02:24:33;;;;;;;;;6.25;0.50;;;;;;;;5070355;27;51122;-49
2022/05/01 02:27:18;;;;;;;;;2.00;1.00;;;;;;;;5073901;27;51106;-48
2022/05/01 02:30:02;;;;;;;;;2.75;0.00;;;;;;;;5063893;27;52934;-48
2022/05/01 02:32:46;;;;;;;;;3.50;1.00;;;;;;;;5062386;28;51340;-50
2022/05/01 02:35:31;;;;;;;;;4.00;0.75;;;;;;;;5072218;27;51036;-48
2022/05/01 02:38:15;;;;;;;;;1.00;0.75;;;;;;;;5064179;27;51297;-48
2022/05/01 02:41:00;;;;;;;;;0.75;0.75;;;;;;;;5060302;28;51443;-48
2022/05/01 02:43:44;;;;;;;;;7.50;2.00;;;;;;;;5061475;27;51151;-49
2022/05/01 02:46:28;;;;;;;;;3.25;2.25;;;;;;;;5071297;27;51485;-48
2022/05/01 02:49:14;;;;;;;;;2.50;2.00;;;;;;;;5069228;27;51095;-49
2022/05/01 02:51:58;;;;;;;;;4.25;1.75;;;;;;;;5060291;27;51048;-49
2022/05/01 02:54:43;;;;;;;;;2.25;0.50;;;;;;;;5065526;27;51374;-49
2022/05/01 02:57:27;;;;;;;;;2.75;1.75;;;;;;;;5060021;27;51335;-49
2022/05/01 03:00:22;;;;;;;;;2.50;1.00;;;;;;;;5059854;28;51187;-48
2022/05/01 03:03:06;;;;;;;;;0.75;0.75;;;;;;;;5059688;28;51162;-48
2022/05/01 03:05:54;;;;;;;;;0.75;0.75;;;;;;;;5059639;28;51459;-49
2022/05/01 03:08:38;;;;;;;;;1.00;1.00;;;;;;;;5068293;27;51137;-49
2022/05/01 03:11:22;;;;;;;;;2.75;1.00;;;;;;;;5066922;27;51311;-48
2022/05/01 03:14:09;;;;;;;;;2.25;0.75;;;;;;;;5066242;28;51119;-49
2022/05/01 03:16:54;;;;;;;;;4.25;2.00;;;;;;;;5067279;28;51275;-50
2022/05/01 03:22:41;;;;;;;;;0.75;0.75;;;;;;;;5061262;28;51677;-51
2022/05/01 03:25:25;;;;;;;;;4.25;1.25;;;;;;;;5064403;28;51045;-49
2022/05/01 03:28:10;;;;;;;;;1.00;1.00;;;;;;;;5059991;28;51060;-48
2022/05/01 03:30:56;;;;;;;;;1.75;1.75;;;;;;;;5061962;28;51070;-50
2022/05/01 03:33:41;;;;;;;;;1.75;1.75;;;;;;;;5065874;28;50967;-49
2022/05/01 03:36:26;;;;;;;;;1.50;1.50;;;;;;;;5059450;28;51294;-49
2022/05/01 03:39:10;;;;;;;;;1.75;0.75;;;;;;;;5061065;28;51438;-50
2022/05/01 03:41:54;;;;;;;;;4.00;1.75;;;;;;;;5062415;28;51195;-49
2022/05/01 03:44:39;;;;;;;;;0.75;0.75;;;;;;;;5063468;28;51452;-50
2022/05/01 03:47:23;;;;;;;;;3.00;1.75;;;;;;;;5063886;28;51307;-50
2022/05/01 03:50:08;;;;;;;;;1.25;1.00;;;;;;;;5074792;28;51084;-49
2022/05/01 03:52:52;;;;;;;;;4.75;0.75;;;;;;;;5065660;27;51139;-49
2022/05/01 03:55:37;;;;;;;;;2.50;1.50;;;;;;;;5070015;27;51339;-49
2022/05/01 03:58:21;;;;;;;;;3.00;1.00;;;;;;;;5078038;27;51080;-48
2022/05/01 04:01:07;;;;;;;;;2.50;1.50;;;;;;;;5065994;27;51265;-50
2022/05/01 04:03:52;;;;;;;;;2.00;1.50;;;;;;;;5072307;27;51231;-49
2022/05/01 04:06:36;;;;;;;;;5.75;2.00;;;;;;;;5065574;27;51028;-49
2022/05/01 04:09:24;;;;;;;;;6.25;1.75;;;;;;;;5066714;27;51146;-50
2022/05/01 04:12:08;;;;;;;;;0.00;0.00;;;;;;;;5069989;27;52817;-48
2022/05/01 04:14:53;;;;;;;;;3.75;1.75;;;;;;;;5066774;27;51044;-50
2022/05/01 04:17:41;;;;;;;;;7.50;1.75;;;;;;;;5078544;27;51226;-48
2022/05/01 04:20:25;;;;;;;;;1.75;1.75;;;;;;;;5065034;27;52815;-49
2022/05/01 04:23:09;;;;;;;;;2.75;1.00;;;;;;;;5073459;27;51481;-49
2022/05/01 04:25:54;;;;;;;;;3.50;1.25;;;;;;;;5066459;27;51272;-48
2022/05/01 04:28:38;;;;;;;;;2.25;1.25;;;;;;;;5071972;27;51136;-50
2022/05/01 04:31:22;;;;;;;;;1.00;0.75;;;;;;;;5064510;27;51095;-49
2022/05/01 04:34:07;;;;;;;;;3.25;0.00;;;;;;;;5065189;27;51069;-49
2022/05/01 04:36:51;;;;;;;;;2.25;2.00;;;;;;;;5076604;27;51321;-49
2022/05/01 04:39:35;;;;;;;;;2.75;1.25;;;;;;;;5061780;28;51250;-49
2022/05/01 04:42:20;;;;;;;;;2.00;2.00;;;;;;;;5049028;27;51123;-49
2022/05/01 04:45:05;;;;;;;;;3.00;1.75;;;;;;;;5067288;27;51328;-49
2022/05/01 04:47:49;;;;;;;;;2.75;2.25;;;;;;;;5062931;27;51178;-50
2022/05/01 04:50:34;;;;;;;;;2.00;1.75;;;;;;;;5074296;27;51357;-49
2022/05/01 04:53:19;;;;;;;;;4.00;2.50;;;;;;;;5067437;27;51052;-48
2022/05/01 04:59:07;;;;;;;;;2.25;1.50;;;;;;;;5070052;27;51686;-50
2022/05/01 05:01:51;;;;;;;;;3.00;2.00;;;;;;;;5068159;27;51144;-49
2022/05/01 05:04:36;;;;;;;;;1.75;1.75;;;;;;;;5067148;27;51163;-49
2022/05/01 05:07:20;;;;;;;;;1.75;1.75;;;;;;;;5061969;27;51218;-49
2022/05/01 05:10:05;;;;;;;;;3.50;0.75;;;;;;;;5063776;27;51462;-50
2022/05/01 05:12:50;;;;;;;;;3.50;2.50;;;;;;;;5063537;27;51402;-50
2022/05/01 05:15:34;;;;;;;;;1.50;1.00;;;;;;;;5068162;27;51084;-49
2022/05/01 05:18:18;;;;;;;;;2.75;1.75;;;;;;;;5075172;27;51060;-49
2022/05/01 05:21:03;;;;;;;;;3.50;2.00;;;;;;;;5063760;27;51252;-50
2022/05/01 05:23:47;;;;;;;;;3.00;1.75;;;;;;;;5063962;27;51218;-49
2022/05/01 05:26:32;;;;;;;;;4.75;1.75;;;;;;;;5067646;27;51184;-48
2022/05/01 05:29:16;;;;;;;;;3.50;3.25;;;;;;;;5065056;27;51386;-49
2022/05/01 05:32:01;;;;;;;;;4.00;3.50;;;;;;;;5070544;27;51204;-50
2022/05/01 05:34:45;;;;;;;;;2.75;2.75;;;;;;;;5073700;27;51105;-49
2022/05/01 05:37:31;;;;;;;;;2.75;2.00;;;;;;;;5066341;27;51239;-48
2022/05/01 05:40:15;;;;;;;;;3.75;3.00;;;;;;;;5065313;27;51207;-49
2022/05/01 05:43:00;;;;;;;;;6.25;4.25;;;;;;;;5066086;27;51073;-49
2022/05/01 05:45:45;;;;;;;;;3.75;3.75;;;;;;;;5062328;28;51170;-50
2022/05/01 05:48:29;;;;;;;;;7.25;3.25;;;;;;;;5068095;27;51075;-52
2022/05/01 05:51:14;;;;;;;;;7.75;2.75;;;;;;;;5067555;27;51062;-49
2022/05/01 05:53:58;;;;;;;;;6.00;3.00;;;;;;;;5062098;27;51146;-49
2022/05/01 05:56:42;;;;;;;;;3.00;3.00;;;;;;;;5061272;27;51135;-50
2022/05/01 05:59:27;;;;;;;;;6.00;4.00;;;;;;;;5062544;27;51106;-51
2022/05/01 06:02:11;;;;;;;;;6.75;3.75;;;;;;;;5066963;27;51642;-49
2022/05/01 06:04:55;;;;;;;;;5.75;2.75;;;;;;;;5063914;27;51742;-49
2022/05/01 06:07:40;;;;;;;;;7.00;3.00;;;;;;;;5064282;27;51366;-49
2022/05/01 06:10:24;;;;;;;;;3.25;2.00;;;;;;;;5063309;27;51338;-49
2022/05/01 06:13:09;;;;;;;;;8.50;4.75;;;;;;;;5066717;27;51157;-52
2022/05/01 06:15:53;;;;;;;;;5.50;3.00;;;;;;;;5057488;28;51503;-50
2022/05/01 06:18:38;;;;;;;;;6.25;6.25;;;;;;;;5065362;27;51001;-52
2022/05/01 06:21:22;;;;;;;;;17.50;11.75;;;;;;;;5057995;27;51143;-53
2022/05/01 06:24:07;;;;;;;;;31.75;27.75;;;;;;;;5065500;27;51494;-52
2022/05/01 06:26:51;;;;;;;;;28.25;25.25;;;;;;;;5063998;27;50979;-49
2022/05/01 06:29:36;;;;;;;;;27.00;21.00;;;;;;;;5063234;27;51163;-52
2022/05/01 06:32:20;;;;;;;;;26.00;21.75;;;;;;;;5057910;28;51185;-49
2022/05/01 06:35:06;;;;;;;;;25.00;20.50;;;;;;;;5063100;27;51100;-50
2022/05/01 06:37:50;;;;;;;;;20.00;17.50;;;;;;;;5060718;28;51154;-49
2022/05/01 06:40:35;;;;;;;;;23.25;21.75;;;;;;;;5061143;27;51159;-48
2022/05/01 06:43:20;;;;;;;;;23.00;20.00;;;;;;;;4929136;27;4838510;-49
2022/05/01 06:46:04;;;;;;;;;24.25;23.00;;;;;;;;5100168;27;8777;-49
2022/05/01 06:48:48;;;;;;;;;26.75;22.50;;;;;;;;5102283;27;8801;-49
2022/05/01 06:51:33;;;;;;;;;36.25;27.25;;;;;;;;5093918;27;8809;-50
2022/05/01 06:54:17;;;;;;;;;36.00;30.25;;;;;;;;5097867;27;8793;-51
2022/05/01 06:57:02;;;;;;;;;23.75;19.75;;;;;;;;5099230;27;9037;-49
2022/05/01 06:59:46;;;;;;;;;24.75;21.50;;;;;;;;5108544;27;8781;-50
2022/05/01 07:02:30;;;;;;;;;26.50;21.25;;;;;;;;5104687;27;8781;-52
2022/05/01 07:05:15;;;;;;;;;31.50;28.25;;;;;;;;5101161;27;9287;-50
2022/05/01 07:08:00;;;;;;;;;26.00;23.25;;;;;;;;5101181;27;8804;-51
2022/05/01 07:10:45;;;;;;;;;25.75;24.00;;;;;;;;5103325;27;8797;-49
2022/05/01 07:13:29;;;;;;;;;28.25;24.25;;;;;;;;5106709;27;8785;-50
2022/05/01 07:16:13;;;;;;;;;21.75;19.50;;;;;;;;5099715;28;8784;-52
2022/05/01 07:18:58;;;;;;;;;16.50;14.50;;;;;;;;5102073;28;8762;-50
2022/05/01 07:21:43;;;;;;;;;24.75;18.50;;;;;;;;5097850;28;8794;-50
2022/05/01 07:24:27;;;;;;;;;26.75;20.50;;;;;;;;5101475;28;9678;-52
2022/05/01 07:27:11;;;;;;;;;28.00;23.50;;;;;;;;5106132;27;8788;-49
2022/05/01 07:29:55;;;;;;;;;20.25;16.25;;;;;;;;5103881;27;8944;-50
2022/05/01 07:32:40;;;;;;;;;14.25;13.50;;;;;;;;5109011;27;9527;-50
2022/05/01 07:35:24;;;;;;;;;16.25;14.75;;;;;;;;5112513;27;8783;-50
2022/05/01 07:38:09;;;;;;;;;19.25;14.75;;;;;;;;5107491;27;8792;-48
2022/05/01 07:40:53;;;;;;;;;20.00;16.25;;;;;;;;5100509;28;8800;-49
2022/05/01 07:43:38;;;;;;;;;8.00;4.25;;;;;;;;5100713;28;8761;-49
2022/05/01 07:46:23;;;;;;;;;7.25;4.50;;;;;;;;5114451;27;8905;-50
2022/05/01 07:49:08;;;;;;;;;6.00;3.00;;;;;;;;5117973;27;8779;-50
2022/05/01 07:51:52;;;;;;;;;3.25;3.25;;;;;;;;5108109;27;8785;-50
2022/05/01 07:54:36;;;;;;;;;4.75;3.00;;;;;;;;5121007;27;8759;-52
2022/05/01 07:57:26;;;;;;;;;3.00;1.00;;;;;;;;5100546;27;8793;-51
2022/05/01 08:00:13;;;;;;;;;3.00;0.00;;;;;;;;5100345;27;8789;-50
2022/05/01 08:06:00;;;;;;;;;0.00;0.00;;;;;;;;5109277;27;8775;-50
2022/05/01 08:08:44;;;;;;;;;2.25;0.75;;;;;;;;5106200;27;8781;-50
2022/05/01 08:11:29;;;;;;;;;3.00;2.00;;;;;;;;5120595;27;8779;-49
2022/05/01 08:14:13;;;;;;;;;3.00;0.75;;;;;;;;5100889;27;8788;-52
2022/05/01 08:16:58;;;;;;;;;2.75;2.00;;;;;;;;5108761;27;8767;-50
2022/05/01 08:22:45;;;;;;;;;4.50;2.75;;;;;;;;5103821;27;8802;-51
2022/05/01 08:25:29;;;;;;;;;2.00;1.25;;;;;;;;5118607;27;8794;-46
2022/05/01 08:28:14;;;;;;;;;2.75;1.00;;;;;;;;5119987;27;8779;-47
2022/05/01 08:30:59;;;;;;;;;3.00;3.00;;;;;;;;5101739;27;8805;-48
2022/05/01 08:33:43;;;;;;;;;2.50;2.00;;;;;;;;5099691;28;8773;-47
2022/05/01 08:36:29;;;;;;;;;3.50;0.75;;;;;;;;5108018;27;8778;-50
2022/05/01 08:39:13;;;;;;;;;3.25;1.00;;;;;;;;5098854;28;8773;-49
2022/05/01 08:41:58;;;;;;;;;4.50;1.00;;;;;;;;5099738;28;8793;-51
2022/05/01 08:44:47;;;;;;;;;5.00;3.00;;;;;;;;5101188;27;8797;-48
2022/05/01 08:47:50;;;;;;;;;4.00;2.00;;;;;;;;5104028;27;9604;-47
2022/05/01 08:50:35;;;;;;;;;4.75;2.75;;;;;;;;5099319;28;8785;-48
2022/05/01 08:53:22;;;;;;;;;9.00;5.25;;;;;;;;5099310;28;8765;-49
2022/05/01 08:56:07;;;;;;;;;9.00;7.00;;;;;;;;5103736;27;8773;-52
2022/05/01 08:58:52;;;;;;;;;8.25;3.50;;;;;;;;5113162;27;9566;-53
2022/05/01 09:01:37;;;;;;;;;10.00;6.00;;;;;;;;5119355;27;8791;-49
2022/05/01 09:04:23;;;;;;;;;5.50;5.00;;;;;;;;5103010;27;8761;-51
2022/05/01 09:07:08;;;;;;;;;4.25;2.00;;;;;;;;5099157;28;8919;-47
2022/05/01 09:09:52;;;;;;;;;5.50;1.00;;;;;;;;5100115;27;9600;-50
2022/05/01 09:12:53;;;;;;;;;3.25;3.00;;;;;;;;5105854;27;8795;-51
2022/05/01 09:15:43;;;;;;;;;2.00;0.50;;;;;;;;5098770;28;9739;-52
2022/05/01 09:18:41;;;;;;;;;1.75;1.00;;;;;;;;5098677;28;8765;-52
2022/05/01 09:21:25;;;;;;;;;1.25;1.00;;;;;;;;5095620;27;9707;-47
2022/05/01 09:24:10;;;;;;;;;1.25;1.00;;;;;;;;5109014;27;8771;-50
2022/05/01 09:26:58;;;;;;;;;4.75;2.00;;;;;;;;5104557;27;8788;-60
2022/05/01 09:29:42;;;;;;;;;3.75;0.75;;;;;;;;5106284;27;8777;-60
2022/05/01 09:32:38;;;;;;;;;6.50;0.50;;;;;;;;5096016;27;8796;-58
2022/05/01 09:35:22;;;;;;;;;4.25;1.25;;;;;;;;5102430;27;8789;-60
2022/05/01 09:38:13;;;;;;;;;6.00;1.50;;;;;;;;5117917;27;9660;-60
2022/05/01 09:41:00;;;;;;;;;4.00;1.00;;;;;;;;5101906;27;10064;-61
2022/05/01 09:43:45;;;;;;;;;3.25;0.50;;;;;;;;5098283;28;8804;-61
2022/05/01 09:46:33;;;;;;;;;3.75;1.25;;;;;;;;5098143;28;8773;-61
2022/05/01 09:49:18;;;;;;;;;0.50;0.25;;;;;;;;5096946;28;8792;-61
2022/05/01 09:52:03;;;;;;;;;1.00;0.25;;;;;;;;5098263;27;8801;-60
2022/05/01 09:55:06;;;;;;;;;0.00;0.00;;;;;;;;5099641;27;8773;-61
2022/05/01 09:58:01;;;;;;;;;3.25;0.75;;;;;;;;5097476;28;8827;-60
2022/05/01 10:00:46;;;;;;;;;1.50;0.00;;;;;;;;5097817;28;8915;-60
2022/05/01 10:03:33;;;;;;;;;0.25;0.00;;;;;;;;5099582;27;8798;-61
2022/05/01 10:06:18;;;;;;;;;2.50;0.00;;;;;;;;5103666;27;8830;-60
2022/05/01 10:09:02;;;;;;;;;1.00;0.00;;;;;;;;5107081;27;9588;-61
2022/05/01 10:11:48;;;;;;;;;1.75;0.00;;;;;;;;5102055;27;8828;-60
2022/05/01 10:14:33;;;;;;;;;1.75;0.00;;;;;;;;5106177;27;8769;-60
2022/05/01 10:17:17;;;;;;;;;0.00;0.00;;;;;;;;5106572;27;8815;-60
2022/05/01 10:20:04;;;;;;;;;3.00;0.50;;;;;;;;5108356;27;9489;-59
2022/05/01 10:22:49;;;;;;;;;2.25;0.00;;;;;;;;5104916;27;8783;-60
2022/05/01 10:25:35;;;;;;;;;1.75;0.50;;;;;;;;5106641;27;8781;-60
2022/05/01 10:28:37;;;;;;;;;0.00;0.00;;;;;;;;5103209;27;8792;-60
2022/05/01 10:35:03;;;;;;;;;2.50;0.00;;;;;;;;5108702;27;8797;-60
2022/05/01 10:37:47;;;;;;;;;1.75;1.00;;;;;;;;5104210;27;8795;-61
2022/05/01 10:40:48;;;;;;;;;0.00;0.00;;;;;;;;5105829;27;8801;-60
2022/05/01 10:43:35;;;;;;;;;0.50;0.00;;;;;;;;5096421;28;8769;-60
2022/05/01 10:46:20;;;;;;;;;1.50;0.00;;;;;;;;5105902;27;8832;-62
2022/05/01 10:49:05;;;;;;;;;0.75;0.25;;;;;;;;5097142;28;8805;-60
2022/05/01 10:51:52;;;;;;;;;1.50;0.00;;;;;;;;5096915;28;8782;-61
2022/05/01 10:54:37;;;;;;;;;2.50;0.00;;;;;;;;5096054;28;8796;-60
2022/05/01 10:57:23;;;;;;;;;6.00;1.00;;;;;;;;5096572;28;9536;-60
2022/05/01 11:00:10;;;;;;;;;1.50;0.75;;;;;;;;5098579;27;8777;-61
2022/05/01 11:02:56;;;;;;;;;0.00;0.00;;;;;;;;5117314;27;9705;-61
2022/05/01 11:05:45;;;;;;;;;2.75;0.00;;;;;;;;5116994;27;8790;-61
2022/05/01 11:08:37;;;;;;;;;2.00;0.25;;;;;;;;5116512;27;8794;-61
2022/05/01 11:11:21;;;;;;;;;0.00;0.00;;;;;;;;5095585;27;8795;-60
2022/05/01 11:14:06;;;;;;;;;3.75;1.00;;;;;;;;5105972;27;8807;-61
2022/05/01 11:16:54;;;;;;;;;0.50;0.50;;;;;;;;5115601;27;9570;-61
2022/05/01 11:19:45;;;;;;;;;0.75;0.25;;;;;;;;5101397;28;8787;-60
2022/05/01 11:22:33;;;;;;;;;0.75;0.75;;;;;;;;5095981;28;8797;-61
2022/05/01 11:25:18;;;;;;;;;1.00;0.00;;;;;;;;5095595;28;8797;-61
2022/05/01 11:28:03;;;;;;;;;1.00;0.00;;;;;;;;5085772;28;8794;-61
2022/05/01 11:30:47;;;;;;;;;1.25;0.75;;;;;;;;5075961;28;8806;-59
2022/05/01 11:33:32;;;;;;;;;2.00;1.00;;;;;;;;5060237;28;8802;-60
2022/05/01 11:36:16;;;;;;;;;2.00;1.00;;;;;;;;5074509;28;9550;-60
2022/05/01 11:39:00;;;;;;;;;2.75;1.00;;;;;;;;5075080;28;8787;-60
2022/05/01 11:41:47;;;;;;;;;2.75;1.75;;;;;;;;5075750;28;8792;-61
2022/05/01 11:44:35;;;;;;;;;2.50;1.00;;;;;;;;5095338;28;8776;-60
2022/05/01 11:47:19;;;;;;;;;0.50;0.50;;;;;;;;5094999;28;8718;-60
2022/05/01 11:50:05;;;;;;;;;1.75;0.00;;;;;;;;5095874;28;8817;-61
2022/05/01 11:52:50;;;;;;;;;2.00;0.75;;;;;;;;5096119;28;8785;-61
2022/05/01 12:05:04;;;;;;;;;1.00;1.00;;;;;;;;5083377;28;8780;-61
2022/05/01 12:07:56;;;;;;;;;3.00;1.00;;;;;;;;5076975;28;8779;-61
2022/05/01 12:10:41;;;;;;;;;1.00;0.75;;;;;;;;5085678;28;8801;-61
2022/05/01 12:13:30;;;;;;;;;1.25;0.50;;;;;;;;5083183;28;8755;-60
2022/05/01 12:16:24;;;;;;;;;1.25;1.00;;;;;;;;5079650;28;8756;-61
2022/05/01 12:19:10;;;;;;;;;1.75;1.75;;;;;;;;5089355;28;8895;-60
2022/05/01 12:21:58;;;;;;;;;0.25;0.25;;;;;;;;5082783;28;8807;-60
2022/05/01 12:24:46;;;;;;;;;5.75;2.75;;;;;;;;5087234;28;8761;-61
2022/05/01 12:27:30;;;;;;;;;4.00;2.75;;;;;;;;5084798;28;8771;-60
2022/05/01 12:30:15;;;;;;;;;2.50;0.00;;;;;;;;5092143;28;8760;-61
2022/05/01 12:32:59;;;;;;;;;1.75;1.75;;;;;;;;5083147;28;8767;-60
2022/05/01 12:35:59;;;;;;;;;0.25;0.25;;;;;;;;5088447;28;8820;-60
2022/05/01 12:38:43;;;;;;;;;2.75;1.75;;;;;;;;5083150;28;8787;-61
2022/05/01 12:44:30;;;;;;;;;1.75;1.00;;;;;;;;5093117;28;8781;-61
2022/05/01 12:47:28;;;;;;;;;2.75;1.00;;;;;;;;5083299;28;8800;-60
2022/05/01 12:50:19;;;;;;;;;3.50;1.00;;;;;;;;5088873;28;8784;-60
2022/05/01 12:53:23;;;;;;;;;3.75;0.75;;;;;;;;5096428;28;9484;-59
2022/05/01 12:56:18;;;;;;;;;1.00;1.00;;;;;;;;5089619;28;8802;-61
2022/05/01 12:59:22;;;;;;;;;4.50;0.25;;;;;;;;5087652;28;8803;-61
2022/05/01 13:02:17;;;;;;;;;2.25;0.75;;;;;;;;5084735;28;8799;-60
2022/05/01 13:05:04;;;;;;;;;1.00;0.00;;;;;;;;5095982;28;8785;-60
2022/05/01 13:07:48;;;;;;;;;2.75;1.00;;;;;;;;5086907;28;8792;-61
2022/05/01 13:10:32;;;;;;;;;1.75;1.00;;;;;;;;5085852;28;8779;-60
2022/05/01 13:13:17;;;;;;;;;2.75;1.00;;;;;;;;5095952;28;8795;-59
2022/05/01 13:16:05;;;;;;;;;1.00;1.00;;;;;;;;5088737;28;8792;-60
2022/05/01 13:18:51;;;;;;;;;2.75;2.25;;;;;;;;5083123;28;8775;-61
2022/05/01 13:21:37;;;;;;;;;2.00;1.00;;;;;;;;5085238;28;8820;-60
2022/05/01 13:24:30;;;;;;;;;0.25;0.00;;;;;;;;5086742;28;8767;-61
2022/05/01 13:27:14;;;;;;;;;1.75;0.00;;;;;;;;5096239;28;8755;-60
2022/05/01 13:29:58;;;;;;;;;2.50;0.25;;;;;;;;5084768;28;8775;-62
2022/05/01 13:32:43;;;;;;;;;1.25;1.25;;;;;;;;5094637;28;8797;-58
2022/05/01 13:35:27;;;;;;;;;3.00;0.50;;;;;;;;5092367;28;8954;-60
2022/05/01 13:38:12;;;;;;;;;3.25;0.75;;;;;;;;5084962;28;8797;-60
2022/05/01 13:47:04;;;;;;;;;0.50;0.50;;;;;;;;5094837;28;8915;-60
2022/05/01 13:49:48;;;;;;;;;0.50;0.25;;;;;;;;5077618;28;8804;-60
2022/05/01 13:52:32;;;;;;;;;1.50;0.00;;;;;;;;5085889;28;8789;-60
2022/05/01 13:55:17;;;;;;;;;0.25;0.25;;;;;;;;5082598;28;8792;-60
2022/05/01 13:58:01;;;;;;;;;0.00;0.00;;;;;;;;5082315;28;8768;-60
2022/05/01 14:00:46;;;;;;;;;2.00;1.00;;;;;;;;5085473;28;8810;-61
2022/05/01 14:03:30;;;;;;;;;1.00;0.25;;;;;;;;5083835;28;8776;-59
2022/05/01 14:06:15;;;;;;;;;3.00;1.00;;;;;;;;5082881;28;8777;-61
2022/05/01 14:08:59;;;;;;;;;3.00;0.25;;;;;;;;5090154;28;8769;-60
2022/05/01 14:11:45;;;;;;;;;0.25;0.25;;;;;;;;5078554;28;8791;-60
2022/05/01 14:14:29;;;;;;;;;1.25;0.00;;;;;;;;5079968;28;8773;-60
2022/05/01 14:17:14;;;;;;;;;14.75;9.50;;;;;;;;5084259;28;9625;-60
2022/05/01 14:19:59;;;;;;;;;8.75;5.25;;;;;;;;5080589;28;8799;-60
2022/05/01 14:22:44;;;;;;;;;1.25;1.25;;;;;;;;5086715;28;8812;-65
2022/05/01 14:25:30;;;;;;;;;2.25;1.00;;;;;;;;5084992;28;8805;-61
2022/05/01 14:28:15;;;;;;;;;1.75;1.25;;;;;;;;5091302;28;8781;-59
2022/05/01 14:31:35;;;;;;;;;6.75;6.00;;;;;;;;5094496;28;8793;-61
2022/05/01 14:34:25;;;;;;;;;5.50;3.50;;;;;;;;5086155;28;8831;-60
2022/05/01 14:37:14;;;;;;;;;2.50;2.50;;;;;;;;5091019;28;8793;-60
2022/05/01 14:40:00;;;;;;;;;5.00;2.00;;;;;;;;5084798;28;8797;-60
2022/05/01 14:42:47;;;;;;;;;2.75;1.75;;;;;;;;5069235;28;8789;-60
2022/05/01 14:45:31;;;;;;;;;3.00;1.25;;;;;;;;5084026;28;8787;-60
2022/05/01 14:48:28;;;;;;;;;5.00;3.00;;;;;;;;5080593;28;8789;-60
2022/05/01 14:51:12;;;;;;;;;4.00;4.00;;;;;;;;5083205;28;8787;-60
2022/05/01 14:53:57;;;;;;;;;2.00;2.00;;;;;;;;5083917;28;8779;-59
2022/05/01 14:56:44;;;;;;;;;3.50;3.25;;;;;;;;5081500;28;8777;-60
2022/05/01 15:08:42;;;;;;;;;4.00;4.00;;;;;;;;5085476;28;8779;-60
2022/05/01 15:11:26;;;;;;;;;6.50;5.50;;;;;;;;5083456;28;8790;-60
2022/05/01 15:14:11;;;;;;;;;8.75;6.75;;;;;;;;5082737;28;8783;-60
2022/05/01 15:17:02;;;;;;;;;1.75;1.75;;;;;;;;5069376;28;8789;-60
2022/05/01 15:19:59;;;;;;;;;2.00;1.00;;;;;;;;5086119;28;8775;-59
2022/05/01 15:23:03;;;;;;;;;1.00;0.25;;;;;;;;5082914;28;8801;-58
2022/05/01 15:25:57;;;;;;;;;3.00;1.75;;;;;;;;5035421;28;8787;-59
2022/05/01 15:28:42;;;;;;;;;5.25;2.50;;;;;;;;5069464;28;8799;-58
2022/05/01 15:31:27;;;;;;;;;11.50;7.75;;;;;;;;5075665;28;8843;-56
2022/05/01 15:34:13;;;;;;;;;18.25;16.75;;;;;;;;5076108;28;8783;-59
2022/05/01 15:36:58;;;;;;;;;16.00;13.75;;;;;;;;5075980;28;8810;-57
2022/05/01 15:39:47;;;;;;;;;9.75;7.25;;;;;;;;5075725;28;8771;-57
2022/05/01 15:42:38;;;;;;;;;4.25;3.50;;;;;;;;5075635;28;8830;-61
2022/05/01 15:45:23;;;;;;;;;10.50;5.25;;;;;;;;5075976;28;8795;-61
2022/05/01 15:48:08;;;;;;;;;7.75;4.00;;;;;;;;5063199;28;8802;-61
2022/05/01 15:53:58;;;;;;;;;3.50;2.50;;;;;;;;5097728;28;8785;-59
2022/05/01 15:56:43;;;;;;;;;3.75;2.00;;;;;;;;5088905;28;8798;-59
2022/05/01 15:59:27;;;;;;;;;3.25;1.00;;;;;;;;5080906;28;8791;-61
2022/05/01 16:02:14;;;;;;;;;2.25;2.25;;;;;;;;5081228;28;9141;-60
2022/05/01 16:04:58;;;;;;;;;5.75;2.75;;;;;;;;5080065;28;8802;-59
2022/05/01 16:07:42;;;;;;;;;4.00;2.50;;;;;;;;5079281;28;8764;-62
2022/05/01 16:10:59;;;;;;;;;2.75;2.00;;;;;;;;5079873;28;8791;-58
2022/05/01 16:13:44;;;;;;;;;1.75;1.75;;;;;;;;5021701;27;8759;-60
2022/05/01 16:16:37;;;;;;;;;2.25;1.50;;;;;;;;5080900;28;8799;-60
2022/05/01 16:19:34;;;;;;;;;4.50;1.50;;;;;;;;5077892;28;9563;-59
2022/05/01 16:22:25;;;;;;;;;1.75;1.25;;;;;;;;5078023;28;8838;-60
2022/05/01 16:25:14;;;;;;;;;5.00;1.25;;;;;;;;5094260;28;8805;-61
2022/05/01 16:28:16;;;;;;;;;4.75;1.75;;;;;;;;5088505;28;8964;-60
2022/05/01 16:31:04;;;;;;;;;2.50;2.50;;;;;;;;5094917;28;8797;-61
2022/05/01 16:34:02;;;;;;;;;6.25;3.50;;;;;;;;5100265;28;8899;-61
2022/05/01 16:36:51;;;;;;;;;9.25;4.50;;;;;;;;5100152;28;8769;-60
2022/05/01 16:39:37;;;;;;;;;5.50;2.25;;;;;;;;5100090;28;9595;-61
2022/05/01 16:42:21;;;;;;;;;3.25;1.25;;;;;;;;5099837;28;8793;-61
2022/05/01 16:45:06;;;;;;;;;10.00;5.00;;;;;;;;5099650;28;8757;-60
2022/05/01 16:47:51;;;;;;;;;21.75;15.75;;;;;;;;5099878;28;8790;-61
2022/05/01 16:50:37;;;;;;;;;4.00;2.50;;;;;;;;5072023;28;8812;-62
2022/05/01 16:53:23;;;;;;;;;4.00;3.75;;;;;;;;5071673;28;9514;-60
2022/05/01 16:56:08;;;;;;;;;5.00;4.00;;;;;;;;5078240;28;9565;-61
2022/05/01 16:58:53;;;;;;;;;15.75;8.00;;;;;;;;5057042;28;9914;-60
2022/05/01 17:01:42;;;;;;;;;12.00;11.25;;;;;;;;5057146;28;8824;-60
2022/05/01 17:04:36;;;;;;;;;13.50;12.25;;;;;;;;5058530;28;8796;-61
2022/05/01 17:07:34;;;;;;;;;11.75;8.50;;;;;;;;5060827;28;8801;-61
2022/05/01 17:10:42;;;;;;;;;14.25;11.50;;;;;;;;5059012;28;8785;-61
2022/05/01 17:13:29;;;;;;;;;16.50;11.50;;;;;;;;5058503;28;8800;-60
2022/05/01 17:16:24;;;;;;;;;7.25;5.75;;;;;;;;5058793;28;8785;-61
2022/05/01 17:19:10;;;;;;;;;6.00;3.00;;;;;;;;5057188;28;8832;-60
2022/05/01 17:22:01;;;;;;;;;9.75;6.50;;;;;;;;5059868;28;8812;-60
2022/05/01 17:24:51;;;;;;;;;13.50;8.25;;;;;;;;5078739;28;8785;-61
2022/05/01 17:27:38;;;;;;;;;14.50;8.00;;;;;;;;5078745;28;8765;-61
2022/05/01 17:30:23;;;;;;;;;9.50;8.00;;;;;;;;5078797;28;8766;-60
2022/05/01 17:33:30;;;;;;;;;20.00;15.50;;;;;;;;5078500;28;8822;-62
2022/05/01 17:36:16;;;;;;;;;6.50;4.25;;;;;;;;5078439;28;9546;-60
2022/05/01 17:39:01;;;;;;;;;4.00;3.25;;;;;;;;5059886;28;8915;-61